Pagina principale
METAR-TAF:

METAR-TAF

Aeroporti :

Monte Malanotte

Prato Nevoso, Italia

latitudine: 44-15N, longitudine: 007-48E, altezza: 1741 m

Osservazione

Il bollettino è stato emesso 6 ore e 10 minuti fa, alle 17:55 UTC
Vento 4 kt da sud/sud-ovest
Temperature 25°C
Umidità 65%
Pressione 1017 hPa
Visibilità: 5000 m
foschia

METAR: LIMY 141755Z 21004KT 5000 BR NSC 25/18 Q1017 RMK FEW FEW080 VAL FOSCHIA VIS MIN 4000W

Ora: 02:05 (00:05 UTC)


TAF: mancante

Osservazioni e previsioni meteorologiche di più di 4000 aeroporti (messaggi METAR e TAF).

Le stazioni disponibili sono rappresentate dai dischi gialli e rossi sulla carta.

Puntare il mouse per vedere il nome della stazione.

Clicca sopra per visualizzare le osservazioni e previsioni meteorologiche.

Per cambiare la mappa : fare clic sui pulsanti verdi con una croce nera per ingrandire, il pulsante verde con un trattino per diminuire, o sulla freccia verde per le mappe adiacenti.


METAR-TAF: